Sandberg, California
Current Conditions -  °F | °C
As of 2:48 PM on Saturday 25 Oct 2014 (Local Time) from KSDB Reporting Station
Clear Clear  
Wind Chill: 72°   Ceiling: Unl
Heat Index: 72°   Visibility: 10mi
Dew Point: 39°   Wind: 17mph
Humidity: 30%   Direction: 210°SSW
Pressure: 30.14"   Gusts: 29mph
Location:  34.6849°N, 118.558°W
Report Text: KSDB 252148Z AUTO 21015G25KT 10SM CLR 22/04 A3014 RMK AO2 PK WND 20030/2051 SLP160 T02220039
Loading
Personal Weather Stations






























Interactive Weather Map New forecast layout! Learn more

10-Day Weather Forecast

Advertisements
Track Severe Weather on mobile